Time;durP1;ratioP1;P1;durP2;ratioP2;P2;SDS_P1;SDS_P2;PMS_P1;PMS_P2;Temp;Humidity;BMP_temperature;BMP_pressure;BME280_temperature;BME280_humidity;BME280_pressure;Samples;Min_cycle;Max_cycle;Signal;HPM_P1;HPM_P2
2022/06/04 00:00:30;;;;;;;;;;;19.10;71.50;;;;;;5054839;28;20021;-83
2022/06/04 00:02:56;;;;;;;7.13;1.67;;;19.10;71.50;;;;;;5053538;28;19912;-82
2022/06/04 00:05:25;;;;;;;2.15;1.55;;;19.00;71.50;;;;;;5053786;28;20044;-82
2022/06/04 00:07:51;;;;;;;3.65;1.92;;;19.00;71.40;;;;;;5053589;28;20500;-81
2022/06/04 00:15:53;;;;;;;4.88;1.40;;;19.00;71.50;;;;;;5053945;28;20058;-83
2022/06/04 00:18:21;;;;;;;3.75;1.88;;;19.00;71.10;;;;;;5054074;28;20025;-82
2022/06/04 00:20:48;;;;;;;5.18;1.70;;;18.90;71.10;;;;;;5053647;28;20421;-82
2022/06/04 00:23:14;;;;;;;3.97;1.33;;;18.80;71.10;;;;;;5053415;28;20087;-83
2022/06/04 00:25:42;;;;;;;2.92;1.50;;;18.80;71.20;;;;;;5052467;28;20028;-82
2022/06/04 00:28:10;;;;;;;3.17;1.85;;;18.80;71.20;;;;;;5053299;28;20036;-81
2022/06/04 00:30:38;;;;;;;3.78;1.40;;;18.70;71.00;;;;;;5053908;28;20025;-83
2022/06/04 00:33:04;;;;;;;;;;;18.70;70.80;;;;;;5053695;28;20025;-82
2022/06/04 00:35:30;;;;;;;3.28;1.30;;;18.70;70.80;;;;;;5052986;28;20362;-84
2022/06/04 00:37:56;;;;;;;3.13;1.30;;;18.60;70.60;;;;;;5053256;28;20080;-83
2022/06/04 00:40:30;;;;;;;2.75;1.45;;;18.60;70.50;;;;;;5053755;28;20381;-84
2022/06/04 00:42:56;;;;;;;5.13;1.77;;;18.60;70.60;;;;;;5052958;28;20122;-85
2022/06/04 00:45:21;;;;;;;2.63;1.30;;;18.60;70.10;;;;;;5053219;28;20107;-83
2022/06/04 00:47:48;;;;;;;2.22;1.25;;;18.50;70.10;;;;;;5053490;28;20021;-83
2022/06/04 00:50:18;;;;;;;1.42;1.15;;;18.60;70.10;;;;;;5052901;28;20036;-83
2022/06/04 00:52:46;;;;;;;4.93;1.60;;;18.50;69.90;;;;;;5051714;28;20027;-82
2022/06/04 00:55:12;;;;;;;3.35;1.40;;;18.40;69.60;;;;;;5051728;28;20130;-82
2022/06/04 00:58:02;;;;;;;3.40;1.33;;;18.40;70.40;;;;;;5051970;28;20095;-82
2022/06/04 01:00:31;;;;;;;4.10;1.38;;;18.40;69.90;;;;;;5052897;28;20497;-83
2022/06/04 01:02:56;;;;;;;2.60;1.23;;;18.30;70.00;;;;;;5052830;28;20108;-82
2022/06/04 01:05:25;;;;;;;1.50;1.33;;;18.30;70.00;;;;;;5052803;28;20128;-83
2022/06/04 01:08:15;;;;;;;1.88;1.20;;;18.20;70.30;;;;;;5052786;28;20029;-83
2022/06/04 01:11:00;;;;;;;3.35;1.35;;;18.10;70.50;;;;;;5052720;28;20033;-83
2022/06/04 01:13:56;;;;;;;4.35;1.20;;;18.20;70.70;;;;;;5052426;28;20037;-81
2022/06/04 01:16:59;;;;;;;2.40;1.30;;;18.10;71.00;;;;;;5052597;28;20545;-82
2022/06/04 01:20:07;;;;;;;2.80;1.20;;;18.00;71.80;;;;;;5052630;28;20041;-83
2022/06/04 01:22:32;;;;;;;;;;;17.90;71.40;;;;;;5033716;28;20053;-83
2022/06/04 01:25:37;;;;;;;3.70;1.42;;;17.90;71.30;;;;;;5052064;28;19966;-83
2022/06/04 01:28:14;;;;;;;1.52;1.08;;;17.90;71.30;;;;;;5052182;28;20055;-84
2022/06/04 01:30:45;;;;;;;4.13;1.40;;;17.90;71.20;;;;;;5051912;28;20013;-83
2022/06/04 01:33:20;;;;;;;4.65;1.50;;;17.80;71.20;;;;;;5052183;28;20425;-84
2022/06/04 01:35:58;;;;;;;3.42;1.67;;;17.70;71.20;;;;;;5051953;28;20513;-83
2022/06/04 01:38:35;;;;;;;4.00;1.50;;;17.70;71.20;;;;;;5050895;28;20047;-83
2022/06/04 01:41:21;;;;;;;4.65;1.60;;;17.70;71.10;;;;;;5051925;28;20036;-83
2022/06/04 01:43:54;;;;;;;3.00;1.35;;;17.60;71.00;;;;;;5052219;28;20179;-85
2022/06/04 01:46:37;;;;;;;2.58;1.60;;;17.50;71.30;;;;;;5051925;28;20033;-82
2022/06/04 01:49:09;;;;;;;3.63;1.30;;;17.50;71.20;;;;;;5051669;28;20043;-86
2022/06/04 01:51:36;;;;;;;1.98;1.42;;;17.40;71.30;;;;;;5052190;28;20033;-85
2022/06/04 01:54:27;;;;;;;3.20;1.30;;;17.40;71.30;;;;;;5051642;28;20090;-83
2022/06/04 01:56:59;;;;;;;1.90;1.38;;;17.40;71.50;;;;;;5050841;28;20124;-82
2022/06/04 01:59:57;;;;;;;2.80;1.20;;;17.30;71.50;;;;;;5051700;28;20021;-84
2022/06/04 02:02:35;;;;;;;3.72;1.27;;;17.30;71.80;;;;;;5051275;28;20025;-82
2022/06/04 02:05:07;;;;;;;1.95;1.60;;;17.30;72.00;;;;;;5050417;28;20086;-82
2022/06/04 02:07:37;;;;;;;2.25;1.33;;;17.30;72.00;;;;;;5050665;28;20078;-82
2022/06/04 02:10:24;;;;;;;1.85;1.13;;;17.30;71.90;;;;;;5051761;28;20025;-83
2022/06/04 02:12:54;;;;;;;1.85;1.38;;;17.30;72.10;;;;;;5051763;28;20029;-83
2022/06/04 02:15:29;;;;;;;4.68;1.10;;;17.20;72.00;;;;;;5051223;28;20020;-83
2022/06/04 02:17:57;;;;;;;2.03;1.38;;;17.20;72.00;;;;;;5052078;28;20474;-83
2022/06/04 02:20:25;;;;;;;2.10;1.40;;;17.20;72.00;;;;;;5050613;28;20033;-84
2022/06/04 02:22:51;;;;;;;3.92;1.33;;;17.20;72.10;;;;;;5042815;28;20471;-84
2022/06/04 02:25:18;;;;;;;5.40;1.52;;;17.10;72.20;;;;;;5050199;28;20029;-83
2022/06/04 02:27:44;;;;;;;3.97;1.33;;;17.00;72.40;;;;;;5051087;28;20182;-85
2022/06/04 02:30:12;;;;;;;4.57;1.70;;;17.00;73.20;;;;;;5050967;28;20029;-83
2022/06/04 02:33:07;;;;;;;2.20;1.20;;;17.00;72.70;;;;;;5050031;28;20063;-83
2022/06/04 02:35:47;;;;;;;3.33;1.55;;;16.90;72.60;;;;;;5051030;28;20033;-83
2022/06/04 02:38:29;;;;;;;2.30;1.27;;;16.90;72.90;;;;;;5051308;28;20033;-84
2022/06/04 02:41:01;;;;;;;3.63;1.40;;;16.90;72.80;;;;;;5050537;28;20382;-84
2022/06/04 02:43:35;;;;;;;3.95;1.52;;;16.80;73.10;;;;;;5051038;28;20549;-82
2022/06/04 02:46:18;;;;;;;3.35;1.38;;;16.80;73.00;;;;;;5050761;28;20033;-83
2022/06/04 02:49:04;;;;;;;1.42;1.33;;;16.80;73.00;;;;;;5051599;28;20236;-81
2022/06/04 02:51:35;;;;;;;3.58;1.40;;;16.70;73.20;;;;;;5050882;28;20033;-83
2022/06/04 02:54:06;;;;;;;2.20;1.55;;;16.70;73.30;;;;;;5050888;28;20044;-84
2022/06/04 02:56:33;;;;;;;3.00;1.60;;;16.80;73.60;;;;;;5050128;28;20044;-82
2022/06/04 02:59:04;;;;;;;2.60;1.50;;;16.70;73.40;;;;;;5050573;28;20025;-82
2022/06/04 03:01:33;;;;;;;5.10;1.90;;;16.70;73.80;;;;;;5049341;28;20056;-82
2022/06/04 03:03:59;;;;;;;2.10;1.60;;;16.60;74.10;;;;;;5050439;28;20029;-83
2022/06/04 03:06:28;;;;;;;2.35;1.65;;;16.60;74.00;;;;;;5050885;28;20039;-82
2022/06/04 03:08:54;;;;;;;2.17;1.40;;;16.70;73.90;;;;;;5050891;28;20056;-82
2022/06/04 03:11:20;;;;;;;2.88;1.40;;;16.60;74.10;;;;;;5050709;28;20044;-83
2022/06/04 03:13:47;;;;;;;2.55;1.30;;;16.60;74.40;;;;;;5050281;28;20029;-82
2022/06/04 03:16:14;;;;;;;3.55;1.50;;;16.50;74.60;;;;;;5050418;28;20035;-83
2022/06/04 03:18:40;;;;;;;7.83;1.50;;;16.60;74.40;;;;;;5050971;28;20016;-83
2022/06/04 03:21:06;;;;;;;1.85;1.40;;;16.50;74.30;;;;;;5050657;28;20037;-83
2022/06/04 03:23:32;;;;;;;5.68;1.80;;;16.40;74.40;;;;;;5050934;28;20044;-84
2022/06/04 03:25:58;;;;;;;4.10;1.95;;;16.50;74.60;;;;;;5050424;28;20044;-84
2022/06/04 03:28:23;;;;;;;2.08;1.40;;;16.50;74.80;;;;;;5050444;28;20026;-83
2022/06/04 03:30:49;;;;;;;4.78;1.60;;;16.40;74.80;;;;;;5050539;28;20017;-80
2022/06/04 03:33:15;;;;;;;3.17;1.60;;;16.40;75.10;;;;;;5051201;28;20032;-82
2022/06/04 03:35:43;;;;;;;6.90;1.95;;;16.40;74.90;;;;;;5050411;28;20040;-81
2022/06/04 03:38:09;;;;;;;2.25;1.70;;;16.40;75.10;;;;;;5050514;28;20028;-82
2022/06/04 03:40:35;;;;;;;3.33;1.77;;;16.30;75.20;;;;;;5050130;28;20094;-81
2022/06/04 03:43:01;;;;;;;6.00;1.88;;;16.30;75.10;;;;;;5050141;28;20045;-82
2022/06/04 03:45:27;;;;;;;3.30;1.70;;;16.30;75.00;;;;;;5050636;28;20513;-83
2022/06/04 03:47:54;;;;;;;4.15;1.90;;;16.30;75.10;;;;;;5050274;28;20025;-82
2022/06/04 03:50:21;;;;;;;3.00;1.70;;;16.20;75.00;;;;;;5049960;28;20025;-81
2022/06/04 03:52:48;;;;;;;5.95;1.98;;;16.20;75.00;;;;;;5050215;28;20111;-82
2022/06/04 03:55:15;;;;;;;2.67;1.33;;;16.30;74.80;;;;;;5050203;28;20037;-81
2022/06/04 03:57:50;;;;;;;5.43;1.55;;;16.30;74.80;;;;;;5049464;28;20405;-82
2022/06/04 04:00:28;;;;;;;1.55;1.35;;;16.20;74.70;;;;;;5050114;28;20049;-81
2022/06/04 04:03:00;;;;;;;1.67;1.58;;;16.20;74.40;;;;;;5049259;28;20332;-82
2022/06/04 04:05:35;;;;;;;3.53;1.58;;;16.20;73.90;;;;;;5049161;28;20519;-83
2022/06/04 04:08:02;;;;;;;4.00;1.40;;;16.10;74.00;;;;;;5048929;28;20450;-83
2022/06/04 04:10:30;;;;;;;7.55;1.70;;;16.00;74.80;;;;;;5048753;28;20474;-82
2022/06/04 04:12:56;;;;;;;2.92;1.55;;;16.00;74.20;;;;;;5050120;28;20047;-84
2022/06/04 04:15:22;;;;;;;6.50;1.38;;;16.00;74.20;;;;;;5050412;28;20100;-81
2022/06/04 04:17:49;;;;;;;3.92;1.40;;;16.00;74.00;;;;;;5049940;28;20539;-81
2022/06/04 04:20:24;;;;;;;4.85;1.63;;;15.90;74.00;;;;;;5050532;28;20108;-82
2022/06/04 04:22:50;;;;;;;2.50;1.60;;;15.90;74.10;;;;;;5053456;28;20461;-82
2022/06/04 04:25:18;;;;;;;4.22;1.75;;;15.90;74.00;;;;;;5053394;28;20043;-81
2022/06/04 04:27:44;;;;;;;3.17;1.33;;;15.90;74.00;;;;;;5053912;28;20032;-82
2022/06/04 04:30:13;;;;;;;5.75;1.70;;;15.90;73.70;;;;;;5053570;28;20065;-83
2022/06/04 04:32:40;;;;;;;2.88;1.52;;;15.90;74.00;;;;;;5053068;28;20086;-83
2022/06/04 04:35:09;;;;;;;2.28;1.33;;;15.90;73.80;;;;;;5052950;28;20120;-83
2022/06/04 04:37:35;;;;;;;3.65;1.77;;;15.90;73.70;;;;;;5053221;28;20029;-83
2022/06/04 04:40:00;;;;;;;3.13;1.50;;;16.00;74.00;;;;;;5052744;28;20441;-81
2022/06/04 04:42:26;;;;;;;2.97;1.55;;;16.00;74.00;;;;;;5052313;28;20067;-82
2022/06/04 04:44:52;;;;;;;3.17;1.40;;;16.00;73.60;;;;;;5053238;28;20079;-79
2022/06/04 04:47:18;;;;;;;4.00;1.83;;;15.90;73.90;;;;;;5052883;28;20033;-80
2022/06/04 04:49:43;;;;;;;3.40;1.27;;;15.90;73.80;;;;;;5052856;28;20044;-83
2022/06/04 04:52:09;;;;;;;5.00;1.60;;;16.00;73.90;;;;;;5053048;28;20025;-83
2022/06/04 04:54:35;;;;;;;5.18;1.27;;;16.00;73.60;;;;;;5053752;28;20036;-83
2022/06/04 04:57:01;;;;;;;3.17;1.35;;;16.00;73.60;;;;;;5052957;28;20426;-83
2022/06/04 04:59:27;;;;;;;4.03;1.60;;;16.10;73.50;;;;;;5051793;28;20036;-83
2022/06/04 05:01:52;;;;;;;4.10;1.50;;;16.10;73.30;;;;;;5052936;28;20075;-83
2022/06/04 05:04:19;;;;;;;5.07;1.50;;;16.00;74.10;;;;;;5052614;28;20111;-83
2022/06/04 05:06:45;;;;;;;3.85;1.63;;;16.00;73.60;;;;;;5053328;28;20362;-83
2022/06/04 05:09:11;;;;;;;3.15;1.50;;;16.10;73.50;;;;;;5052479;28;20022;-82
2022/06/04 05:11:37;;;;;;;2.17;1.45;;;16.10;73.50;;;;;;5052413;28;20036;-80
2022/06/04 05:14:03;;;;;;;2.63;1.70;;;16.00;73.60;;;;;;5052380;28;20047;-82
2022/06/04 05:16:32;;;;;;;1.55;1.27;;;16.10;73.60;;;;;;5052182;28;20044;-81
2022/06/04 05:18:58;;;;;;;3.58;1.58;;;16.30;73.40;;;;;;5052389;28;20362;-82
2022/06/04 05:21:27;;;;;;;1.73;1.38;;;16.40;73.20;;;;;;5052713;28;20021;-82
2022/06/04 05:23:54;;;;;;;2.50;1.90;;;16.50;73.20;;;;;;5052436;28;20053;-81
2022/06/04 05:26:21;;;;;;;3.63;1.45;;;16.50;72.90;;;;;;5051112;28;20463;-80
2022/06/04 05:28:46;;;;;;;7.38;1.70;;;16.60;73.00;;;;;;5052196;28;20470;-82
2022/06/04 05:31:12;;;;;;;2.90;1.50;;;16.60;72.80;;;;;;5051834;28;20048;-82
2022/06/04 05:33:38;;;;;;;3.42;1.50;;;16.80;72.50;;;;;;5051646;28;20049;-81
2022/06/04 05:36:07;;;;;;;9.10;1.58;;;16.80;72.40;;;;;;5052153;28;20367;-82
2022/06/04 05:38:34;;;;;;;2.50;1.50;;;16.90;72.20;;;;;;5052032;28;20355;-82
2022/06/04 05:41:09;;;;;;;2.07;1.40;;;17.00;72.10;;;;;;5051638;28;20021;-81
2022/06/04 05:43:35;;;;;;;3.78;1.40;;;17.00;72.80;;;;;;5051715;28;20459;-82
2022/06/04 05:46:06;;;;;;;3.40;1.50;;;17.10;71.90;;;;;;5051811;28;20067;-82
2022/06/04 05:48:35;;;;;;;4.50;1.30;;;17.20;72.00;;;;;;5052335;28;20295;-82
2022/06/04 05:51:12;;;;;;;5.10;1.88;;;17.40;71.70;;;;;;5054291;28;20421;-81
2022/06/04 05:53:37;;;;;;;4.75;1.60;;;17.60;71.40;;;;;;5051880;28;20033;-82
2022/06/04 05:56:24;;;;;;;2.67;1.73;;;17.80;71.10;;;;;;5051641;28;20033;-83
2022/06/04 05:58:51;;;;;;;4.47;1.65;;;17.70;71.00;;;;;;5050916;28;20029;-84
2022/06/04 06:01:20;;;;;;;2.20;1.50;;;17.70;71.30;;;;;;5051884;28;20033;-83
2022/06/04 06:03:46;;;;;;;4.32;1.85;;;17.90;71.20;;;;;;5052283;28;20028;-83
2022/06/04 06:06:14;;;;;;;6.85;2.10;;;18.00;70.90;;;;;;5050732;28;20025;-83
2022/06/04 06:08:39;;;;;;;;;;;18.00;70.80;;;;;;5052226;28;20037;-84
2022/06/04 06:11:07;;;;;;;6.68;1.77;;;17.80;70.90;;;;;;5051637;28;19912;-84
2022/06/04 06:13:33;;;;;;;6.22;1.90;;;17.90;71.10;;;;;;5051780;28;20114;-86
2022/06/04 06:16:10;;;;;;;2.47;1.55;;;17.90;70.80;;;;;;5050948;28;20466;-82
2022/06/04 06:18:36;;;;;;;4.03;1.58;;;18.00;70.80;;;;;;5052155;28;20024;-82
2022/06/04 06:21:10;;;;;;;3.72;1.67;;;17.90;70.50;;;;;;5051681;28;20029;-85
2022/06/04 06:23:37;;;;;;;2.65;1.60;;;17.90;71.00;;;;;;5055001;28;20029;-85
2022/06/04 06:26:13;;;;;;;2.00;1.33;;;18.00;70.90;;;;;;5049712;28;20029;-86
2022/06/04 06:28:40;;;;;;;7.43;1.52;;;18.10;70.60;;;;;;5051181;28;20132;-84
2022/06/04 06:31:08;;;;;;;2.83;1.60;;;18.20;70.00;;;;;;5051080;28;20040;-85
2022/06/04 06:33:35;;;;;;;1.73;1.58;;;18.20;70.20;;;;;;5051702;28;20100;-85
2022/06/04 06:36:08;;;;;;;3.20;1.27;;;18.10;70.50;;;;;;5051901;28;20049;-86
2022/06/04 06:38:34;;;;;;;3.58;1.50;;;18.20;70.50;;;;;;5051230;28;20037;-85
2022/06/04 06:41:01;;;;;;;4.55;1.90;;;18.20;70.40;;;;;;5046392;28;20029;-80
2022/06/04 06:43:35;;;;;;;2.05;1.48;;;18.20;70.30;;;;;;5050778;28;20036;-80
2022/06/04 06:46:09;;;;;;;2.88;1.52;;;18.30;70.30;;;;;;5050786;28;20013;-79
2022/06/04 06:48:36;;;;;;;2.25;1.50;;;18.40;70.20;;;;;;5050964;28;20096;-80
2022/06/04 06:51:20;;;;;;;4.20;1.77;;;18.50;70.50;;;;;;5051426;28;20039;-79
2022/06/04 06:53:46;;;;;;;4.00;1.58;;;18.40;70.90;;;;;;5050647;28;20037;-77
2022/06/04 06:56:15;;;;;;;3.53;1.52;;;18.50;70.40;;;;;;5050554;28;20110;-85
2022/06/04 06:58:41;;;;;;;3.03;1.90;;;18.50;70.20;;;;;;5051010;28;20039;-82
2022/06/04 07:01:08;;;;;;;1.42;1.05;;;18.60;70.00;;;;;;5050614;28;20025;-81
2022/06/04 07:03:35;;;;;;;6.35;1.65;;;18.70;69.90;;;;;;5050104;28;20443;-78
2022/06/04 07:06:01;;;;;;;5.43;1.08;;;18.80;69.50;;;;;;5050517;28;20033;-79
2022/06/04 07:08:27;;;;;;;6.70;2.08;;;18.80;69.10;;;;;;5050562;28;20025;-80
2022/06/04 07:10:53;;;;;;;3.22;1.48;;;18.90;69.20;;;;;;5049603;28;20091;-82
2022/06/04 07:13:19;;;;;;;2.53;1.40;;;19.00;69.10;;;;;;5049469;28;20044;-79
2022/06/04 07:15:44;;;;;;;5.97;1.48;;;19.10;68.00;;;;;;5050511;28;20063;-80
2022/06/04 07:18:14;;;;;;;2.53;1.50;;;19.20;67.60;;;;;;5050360;28;20056;-82
2022/06/04 07:20:42;;;;;;;1.92;1.02;;;19.30;67.00;;;;;;5050350;28;20029;-80
2022/06/04 07:23:08;;;;;;;4.00;1.40;;;19.40;67.80;;;;;;5049150;28;20040;-81
2022/06/04 07:25:34;;;;;;;3.78;1.83;;;19.50;67.30;;;;;;5050142;28;20029;-81
2022/06/04 07:28:00;;;;;;;2.33;1.42;;;19.50;67.30;;;;;;5048777;28;20052;-80
2022/06/04 07:30:26;;;;;;;6.55;1.80;;;19.60;67.30;;;;;;5050821;28;20475;-82
2022/06/04 07:32:52;;;;;;;5.03;1.50;;;19.80;66.90;;;;;;5050171;28;20048;-81
2022/06/04 07:35:18;;;;;;;1.80;1.30;;;20.00;66.60;;;;;;5050190;28;20037;-85
2022/06/04 07:37:44;;;;;;;3.45;1.42;;;20.10;66.00;;;;;;5050328;28;20037;-80
2022/06/04 07:40:10;;;;;;;2.58;1.70;;;20.20;65.50;;;;;;5050422;28;20090;-78
2022/06/04 07:42:36;;;;;;;5.07;1.50;;;20.30;64.20;;;;;;5050282;28;20123;-80
2022/06/04 07:45:03;;;;;;;3.03;1.50;;;20.40;65.00;;;;;;5050141;28;20040;-79
2022/06/04 07:47:28;;;;;;;4.07;1.50;;;20.60;64.40;;;;;;5050224;28;20528;-79
2022/06/04 07:49:56;;;;;;;5.82;2.13;;;20.80;64.40;;;;;;5050041;28;20167;-79
2022/06/04 07:52:21;;;;;;;2.22;1.30;;;20.90;63.80;;;;;;5049040;28;20051;-78
2022/06/04 07:54:47;;;;;;;1.70;1.33;;;21.10;63.30;;;;;;5050062;28;20546;-80
2022/06/04 07:57:13;;;;;;;2.50;1.65;;;21.30;62.70;;;;;;5053588;28;20044;-77
2022/06/04 07:59:39;;;;;;;2.45;1.30;;;21.50;62.90;;;;;;5052912;28;20331;-80
2022/06/04 08:02:05;;;;;;;2.08;1.48;;;21.80;62.80;;;;;;5054885;28;20035;-79
2022/06/04 08:04:30;;;;;;;3.65;1.38;;;22.20;61.50;;;;;;5053668;28;20056;-81
2022/06/04 08:06:56;;;;;;;3.45;1.88;;;22.50;61.20;;;;;;5053403;28;20060;-81
2022/06/04 08:09:22;;;;;;;3.95;1.75;;;22.80;61.20;;;;;;5053082;28;20025;-79
2022/06/04 08:11:48;;;;;;;3.53;1.67;;;23.40;59.50;;;;;;5053215;28;20033;-80
2022/06/04 08:14:23;;;;;;;7.13;1.48;;;24.10;59.40;;;;;;5053210;28;20087;-84
2022/06/04 08:16:56;;;;;;;2.67;1.20;;;25.20;58.80;;;;;;5053478;28;20048;-83
2022/06/04 08:19:24;;;;;;;3.67;1.80;;;26.20;56.20;;;;;;5053723;28;20410;-83
2022/06/04 08:21:50;;;;;;;;;;;27.20;55.10;;;;;;5053888;28;20053;-80
2022/06/04 08:24:16;;;;;;;4.13;2.40;;;27.80;52.60;;;;;;5052674;28;20342;-81
2022/06/04 08:26:45;;;;;;;2.15;1.58;;;28.00;53.20;;;;;;5053491;28;20047;-84
2022/06/04 08:29:11;;;;;;;2.00;1.20;;;28.80;51.70;;;;;;5052029;28;20108;-83
2022/06/04 08:31:37;;;;;;;3.88;1.33;;;29.60;50.50;;;;;;5053181;28;20095;-81
2022/06/04 08:34:03;;;;;;;2.80;1.30;;;29.50;49.30;;;;;;5053066;28;20037;-79
2022/06/04 08:36:29;;;;;;;3.40;1.35;;;29.30;49.30;;;;;;5053581;28;20575;-75
2022/06/04 08:38:55;;;;;;;5.53;1.17;;;29.10;49.70;;;;;;5053008;28;20112;-76
2022/06/04 08:41:24;;;;;;;4.75;1.30;;;29.40;49.30;;;;;;5052787;28;20136;-74
2022/06/04 08:44:20;;;;;;;2.92;1.60;;;29.70;49.50;;;;;;5049657;28;20398;-73
2022/06/04 08:47:00;;;;;;;6.32;1.52;;;30.30;48.20;;;;;;5032882;28;20363;-76
2022/06/04 08:49:37;;;;;;;3.25;1.27;;;30.60;47.70;;;;;;5031569;28;20036;-76
2022/06/04 08:52:14;;;;;;;10.07;4.43;;;29.60;48.00;;;;;;5032369;28;20436;-72
2022/06/04 08:57:37;;;;;;;4.35;1.60;;;30.80;46.70;;;;;;5032697;28;20047;-78
2022/06/04 09:00:09;;;;;;;3.78;1.80;;;30.40;46.70;;;;;;5032859;28;20025;-79
2022/06/04 09:02:49;;;;;;;6.55;2.03;;;30.90;46.40;;;;;;5033108;28;20033;-79
2022/06/04 09:05:38;;;;;;;2.22;1.42;;;30.20;46.80;;;;;;5032801;28;20061;-79
2022/06/04 09:08:14;;;;;;;2.20;1.38;;;29.40;46.70;;;;;;5032074;28;20444;-77
2022/06/04 09:10:53;;;;;;;4.63;1.55;;;29.00;47.50;;;;;;5032085;28;20056;-79
2022/06/04 09:13:29;;;;;;;5.95;1.90;;;29.00;47.70;;;;;;5031163;28;20033;-77
2022/06/04 09:15:59;;;;;;;2.13;1.30;;;29.20;48.10;;;;;;5032573;28;20025;-75
2022/06/04 09:18:35;;;;;;;2.60;1.38;;;30.10;47.30;;;;;;5032707;28;20108;-73
2022/06/04 09:21:09;;;;;;;1.65;1.50;;;30.10;46.20;;;;;;5032034;28;20396;-74
2022/06/04 09:23:35;;;;;;;4.00;1.50;;;29.60;47.20;;;;;;5032436;28;20076;-74
2022/06/04 09:26:27;;;;;;;1.95;1.27;;;29.80;47.20;;;;;;5032125;28;20026;-73
2022/06/04 09:29:01;;;;;;;6.03;1.77;;;29.90;46.70;;;;;;5032168;28;20067;-74
2022/06/04 09:31:42;;;;;;;2.70;1.50;;;29.30;47.60;;;;;;5032534;28;20021;-80
2022/06/04 09:34:19;;;;;;;2.33;1.40;;;28.70;48.00;;;;;;5032216;28;20040;-81
2022/06/04 09:36:46;;;;;;;6.93;3.30;;;28.10;48.80;;;;;;5031821;28;20529;-79
2022/06/04 09:39:23;;;;;;;3.90;1.40;;;28.10;48.80;;;;;;5032887;28;20044;-79
2022/06/04 09:41:56;;;;;;;3.83;1.88;;;28.00;49.10;;;;;;5031845;28;20049;-79
2022/06/04 09:44:23;;;;;;;23.55;6.80;;;27.80;49.40;;;;;;5032124;28;20347;-74
2022/06/04 09:46:56;;;;;;;18.75;5.68;;;27.80;52.10;;;;;;5031822;28;20103;-75
2022/06/04 09:49:40;;;;;;;8.18;2.47;;;28.20;51.40;;;;;;5032576;28;20441;-82
2022/06/04 09:52:34;;;;;;;6.35;3.47;;;28.10;50.00;;;;;;5031955;28;20241;-79
2022/06/04 09:55:14;;;;;;;4.47;1.80;;;27.90;49.50;;;;;;5032021;28;20459;-84
2022/06/04 09:57:40;;;;;;;2.65;1.58;;;27.40;50.10;;;;;;5048172;28;20022;-82
2022/06/04 10:00:19;;;;;;;2.25;1.75;;;27.40;49.90;;;;;;5030719;28;20029;-83
2022/06/04 10:02:53;;;;;;;5.97;2.72;;;27.60;49.70;;;;;;5031901;28;20107;-82
2022/06/04 10:05:21;;;;;;;5.18;1.92;;;27.50;50.40;;;;;;5032356;28;20030;-82
2022/06/04 10:07:47;;;;;;;5.00;1.90;;;27.70;50.30;;;;;;5030664;28;20036;-82
2022/06/04 10:10:21;;;;;;;4.05;1.60;;;27.50;50.10;;;;;;5031600;28;20041;-81
2022/06/04 10:15:41;;;;;;;3.58;1.48;;;27.30;50.80;;;;;;5031585;28;20040;-81
2022/06/04 10:18:16;;;;;;;5.70;1.67;;;27.40;50.50;;;;;;5030230;28;20119;-82
2022/06/04 10:20:50;;;;;;;6.78;1.95;;;27.20;50.30;;;;;;5031782;28;20032;-81
2022/06/04 10:23:16;;;;;;;3.95;1.40;;;27.30;50.20;;;;;;5031599;28;20045;-82
2022/06/04 10:26:07;;;;;;;3.38;1.60;;;27.20;50.60;;;;;;5031578;28;20025;-83
2022/06/04 10:28:49;;;;;;;3.80;1.65;;;27.50;50.50;;;;;;5030308;28;20421;-82
2022/06/04 10:31:30;;;;;;;4.38;2.03;;;27.40;50.00;;;;;;5031519;28;20033;-82
2022/06/04 10:34:06;;;;;;;3.28;1.23;;;27.50;49.70;;;;;;5031226;28;20227;-83
2022/06/04 10:36:49;;;;;;;3.10;1.42;;;27.60;49.50;;;;;;5031597;28;20082;-82
2022/06/04 10:39:38;;;;;;;2.70;1.80;;;27.30;50.10;;;;;;5031295;28;20470;-82
2022/06/04 10:42:38;;;;;;;8.27;2.47;;;27.40;50.00;;;;;;5031315;28;20116;-81
2022/06/04 10:45:15;;;;;;;3.08;1.35;;;27.60;50.10;;;;;;5030672;28;20083;-82
2022/06/04 10:47:50;;;;;;;1.63;1.30;;;27.60;49.50;;;;;;5031280;28;20030;-82
2022/06/04 10:51:27;;;;;;;4.50;1.15;;;27.80;49.40;;;;;;5031069;28;20064;-83
2022/06/04 10:53:56;;;;;;;7.78;2.15;;;27.80;49.10;;;;;;5030123;28;20037;-81
2022/06/04 10:56:48;;;;;;;1.30;1.20;;;27.40;50.10;;;;;;5030897;28;20037;-81
2022/06/04 10:59:17;;;;;;;2.47;1.70;;;27.40;50.50;;;;;;5030554;28;20041;-83
2022/06/04 11:01:59;;;;;;;2.53;1.38;;;27.30;50.40;;;;;;5030989;28;20033;-81
2022/06/04 11:04:36;;;;;;;2.15;1.42;;;27.40;50.30;;;;;;5030950;28;20120;-83
2022/06/04 11:07:40;;;;;;;4.68;1.77;;;27.40;49.80;;;;;;5030474;28;20032;-82
2022/06/04 11:10:26;;;;;;;3.80;1.58;;;27.20;50.00;;;;;;5030639;28;20028;-81
2022/06/04 11:13:17;;;;;;;4.03;1.83;;;27.00;50.90;;;;;;5029018;28;20043;-81
2022/06/04 11:15:51;;;;;;;3.42;1.48;;;27.10;51.30;;;;;;5029458;28;20087;-81
2022/06/04 11:18:53;;;;;;;3.83;1.92;;;27.30;51.00;;;;;;5030401;28;20051;-80
2022/06/04 11:21:42;;;;;;;3.10;1.70;;;27.50;51.20;;;;;;5030090;28;20029;-82
2022/06/04 11:24:37;;;;;;;4.18;1.75;;;27.50;50.50;;;;;;5030371;28;20404;-80
2022/06/04 11:27:18;;;;;;;2.03;1.60;;;27.50;50.30;;;;;;5030412;28;20121;-81
2022/06/04 11:29:44;;;;;;;2.05;1.48;;;27.30;50.70;;;;;;5029512;28;20091;-82
2022/06/04 11:32:29;;;;;;;4.15;1.70;;;27.20;51.30;;;;;;5034439;28;20245;-83
2022/06/04 11:35:03;;;;;;;3.95;1.75;;;27.20;51.20;;;;;;5034607;28;20053;-82
2022/06/04 11:37:34;;;;;;;6.63;2.60;;;27.20;51.20;;;;;;5034433;28;20475;-82
2022/06/04 11:40:30;;;;;;;3.17;2.25;;;26.80;51.60;;;;;;5034341;28;20033;-81
2022/06/04 11:43:01;;;;;;;4.70;2.58;;;27.10;51.50;;;;;;5034203;28;20125;-81
2022/06/04 11:45:33;;;;;;;4.22;2.05;;;27.10;51.30;;;;;;5035039;28;20029;-83
2022/06/04 11:48:20;;;;;;;2.72;1.58;;;26.90;51.40;;;;;;5034675;28;20060;-81
2022/06/04 11:51:18;;;;;;;3.92;1.60;;;26.90;51.30;;;;;;5034787;28;20128;-82
2022/06/04 11:53:55;;;;;;;2.85;1.70;;;27.10;51.20;;;;;;5033461;28;20034;-81
2022/06/04 11:56:36;;;;;;;3.57;1.93;;;27.20;51.00;;;;;;5048569;28;20060;-80
2022/06/04 11:59:40;;;;;;;2.85;1.70;;;27.00;51.20;;;;;;5034149;28;20022;-81
2022/06/04 12:02:25;;;;;;;2.97;2.13;;;27.10;50.90;;;;;;5034174;28;20026;-80
2022/06/04 12:05:16;;;;;;;4.07;1.83;;;26.90;51.40;;;;;;5032859;28;20367;-82
2022/06/04 12:07:45;;;;;;;3.08;1.67;;;26.60;51.40;;;;;;5034282;28;20111;-80
2022/06/04 12:10:47;;;;;;;3.00;2.03;;;26.50;51.50;;;;;;5033867;28;20040;-81
2022/06/04 12:13:46;;;;;;;3.67;1.75;;;26.70;51.80;;;;;;5032707;28;20046;-81
2022/06/04 12:16:36;;;;;;;3.92;2.80;;;27.00;51.10;;;;;;5033962;28;20120;-82
2022/06/04 12:25:41;;;;;;;8.13;4.15;;;27.10;51.20;;;;;;5033345;28;20379;-82
2022/06/04 12:28:29;;;;;;;4.28;3.10;;;27.00;51.80;;;;;;5049304;28;20375;-82
2022/06/04 12:30:56;;;;;;;5.60;2.10;;;27.00;51.30;;;;;;5033853;28;20057;-82
2022/06/04 12:33:26;;;;;;;3.65;2.03;;;26.90;51.40;;;;;;5034252;28;20026;-81
2022/06/04 12:35:59;;;;;;;3.60;1.92;;;27.10;51.10;;;;;;5032581;28;20416;-83
2022/06/04 12:38:25;;;;;;;3.63;1.73;;;27.10;51.20;;;;;;5032553;28;20025;-82
2022/06/04 12:41:04;;;;;;;5.65;2.35;;;27.20;50.70;;;;;;5032982;28;20107;-83
2022/06/04 12:43:33;;;;;;;4.35;2.05;;;27.10;51.00;;;;;;5032419;28;20130;-82
2022/06/04 12:46:07;;;;;;;10.32;2.50;;;27.00;51.30;;;;;;5033182;28;20132;-82
2022/06/04 12:48:44;;;;;;;3.30;2.05;;;26.70;51.80;;;;;;5033633;28;20109;-83
2022/06/04 12:51:14;;;;;;;4.80;2.20;;;26.70;51.60;;;;;;5033278;28;20042;-82
2022/06/04 12:54:04;;;;;;;6.40;2.03;;;26.50;52.00;;;;;;5048891;28;20263;-82
2022/06/04 12:56:37;;;;;;;2.15;1.90;;;26.50;52.40;;;;;;5033479;28;20053;-82
2022/06/04 12:59:22;;;;;;;5.50;2.08;;;26.60;52.50;;;;;;5032131;28;20025;-80
2022/06/04 13:01:48;;;;;;;2.75;2.08;;;26.50;52.40;;;;;;5033210;28;20108;-81
2022/06/04 13:04:14;;;;;;;2.55;2.00;;;26.50;52.30;;;;;;5033135;28;20145;-81
2022/06/04 13:06:52;;;;;;;2.67;2.35;;;26.50;52.40;;;;;;5032448;28;20022;-83
2022/06/04 13:09:52;;;;;;;3.78;2.10;;;26.60;52.60;;;;;;5033121;28;20076;-83
2022/06/04 13:12:34;;;;;;;3.45;1.67;;;26.70;52.50;;;;;;5033268;28;20064;-83
2022/06/04 13:15:28;;;;;;;2.13;1.90;;;26.80;52.20;;;;;;5032232;28;20092;-81
2022/06/04 13:17:54;;;;;;;3.60;1.83;;;26.70;52.80;;;;;;5033369;28;20041;-83
2022/06/04 13:20:49;;;;;;;5.45;2.40;;;26.80;52.10;;;;;;5033186;28;20029;-82
2022/06/04 13:23:39;;;;;;;3.75;1.70;;;26.60;53.40;;;;;;5032636;28;20099;-83
2022/06/04 13:26:34;;;;;;;3.47;1.77;;;26.60;52.60;;;;;;5032947;28;20045;-75
2022/06/04 13:29:02;;;;;;;5.85;2.40;;;26.70;52.30;;;;;;5030953;28;20021;-78
2022/06/04 13:31:33;;;;;;;5.75;2.30;;;26.70;53.30;;;;;;5032680;28;20053;-77
2022/06/04 13:34:20;;;;;;;5.00;2.40;;;26.70;53.70;;;;;;5031480;28;20024;-81
2022/06/04 13:36:48;;;;;;;3.67;2.15;;;26.70;53.60;;;;;;5016341;28;20072;-81